createdAt,value
2022-10-05T00:01:35.787Z,79.98
2022-10-05T00:04:22.360Z,79.15
2022-10-05T00:07:19.857Z,79.85
2022-10-05T00:10:10.677Z,79.29
2022-10-05T00:12:38.175Z,79.59
2022-10-05T00:15:33.601Z,78.76
2022-10-05T00:18:22.978Z,78.86
2022-10-05T00:20:51.246Z,79.46
2022-10-05T00:23:32.606Z,78.91
2022-10-05T00:26:14.914Z,78.99
2022-10-05T00:28:43.489Z,78.29
2022-10-05T00:31:26.745Z,79.99
2022-10-05T00:33:57.246Z,79.52
2022-10-05T00:36:26.431Z,78.74
2022-10-05T00:38:55.337Z,79.30
2022-10-05T00:41:37.714Z,77.05
2022-10-05T00:44:39.152Z,78.31
2022-10-05T00:47:51.810Z,77.95
2022-10-05T00:50:29.170Z,79.50
2022-10-05T00:53:20.164Z,79.73
2022-10-05T00:56:26.369Z,77.11
2022-10-05T00:59:22.930Z,78.71
2022-10-05T01:02:37.144Z,77.10
2022-10-05T01:05:26.606Z,78.16
2022-10-05T01:08:27.155Z,78.17
2022-10-05T01:11:22.003Z,77.70
2022-10-05T01:14:24.309Z,78.47
2022-10-05T01:17:11.327Z,79.53
2022-10-05T01:20:08.535Z,80.94
2022-10-05T01:23:12.444Z,79.47
2022-10-05T01:26:10.702Z,78.59
2022-10-05T01:29:01.756Z,79.20
2022-10-05T01:31:53.507Z,77.88
2022-10-05T01:34:49.027Z,77.72
2022-10-05T01:38:01.848Z,77.71
2022-10-05T01:40:37.799Z,78.06
2022-10-05T01:43:34.208Z,78.77
2022-10-05T01:46:24.617Z,78.41
2022-10-05T01:49:33.821Z,78.53
2022-10-05T01:52:16.176Z,80.03
2022-10-05T01:55:08.391Z,78.59
2022-10-05T01:57:50.180Z,79.63
2022-10-05T02:00:20.024Z,79.54
2022-10-05T02:03:18.441Z,78.17
2022-10-05T02:06:35.073Z,78.78
2022-10-05T02:09:16.429Z,78.61
2022-10-05T02:11:55.151Z,78.59
2022-10-05T02:14:32.191Z,78.94
2022-10-05T02:17:07.197Z,79.31
2022-10-05T02:20:06.315Z,78.44
2022-10-05T02:23:04.452Z,78.77
2022-10-05T02:25:39.528Z,79.10
2022-10-05T02:28:22.169Z,79.41
2022-10-05T02:31:04.964Z,79.73
2022-10-05T02:33:35.452Z,79.46
2022-10-05T02:36:17.106Z,79.03
2022-10-05T02:38:59.759Z,79.05
2022-10-05T02:41:45.054Z,80.57
2022-10-05T02:44:49.073Z,78.36
2022-10-05T02:47:35.343Z,79.58
2022-10-05T02:50:42.533Z,78.45
2022-10-05T02:53:25.775Z,79.15
2022-10-05T02:56:14.405Z,78.56
2022-10-05T02:59:10.974Z,78.59
2022-10-05T03:01:58.537Z,78.94
2022-10-05T03:05:36.921Z,78.45
2022-10-05T03:08:36.064Z,78.02
2022-10-05T03:11:16.614Z,78.87
2022-10-05T03:14:12.438Z,79.15
2022-10-05T03:17:00.748Z,80.80
2022-10-05T03:20:14.901Z,80.28
2022-10-05T03:23:01.902Z,79.94
2022-10-05T03:25:47.296Z,80.72
2022-10-05T03:29:02.512Z,78.90
2022-10-05T03:32:12.741Z,79.66
2022-10-05T03:34:49.465Z,80.13
2022-10-05T03:37:45.872Z,79.40
2022-10-05T03:40:52.080Z,79.17
2022-10-05T03:44:10.690Z,79.36
2022-10-05T03:47:01.761Z,79.16
2022-10-05T03:50:03.144Z,81.10
2022-10-05T03:53:04.880Z,82.29
2022-10-05T03:55:47.695Z,80.74
2022-10-05T03:58:39.596Z,81.59
2022-10-05T04:01:15.999Z,82.06
2022-10-05T04:03:58.773Z,84.22
2022-10-05T04:06:42.398Z,81.64
2022-10-05T04:09:23.205Z,81.51
2022-10-05T04:12:16.556Z,83.63
2022-10-05T04:14:53.609Z,84.08
2022-10-05T04:17:43.693Z,84.20
2022-10-05T04:20:33.683Z,85.60
2022-10-05T04:23:38.556Z,84.31
2022-10-05T04:26:19.533Z,84.04
2022-10-05T04:29:14.457Z,85.06
2022-10-05T04:32:06.266Z,85.35
2022-10-05T04:35:24.996Z,84.82
2022-10-05T04:37:57.821Z,86.33
2022-10-05T04:41:21.408Z,85.82
2022-10-05T04:44:22.509Z,84.22
2022-10-05T04:47:18.565Z,84.15
2022-10-05T04:50:17.257Z,83.97
2022-10-05T04:53:35.909Z,84.98
2022-10-05T04:56:14.735Z,84.20
2022-10-05T04:58:52.535Z,84.21
2022-10-05T05:01:36.283Z,83.43
2022-10-05T05:04:47.157Z,82.48
2022-10-05T05:07:37.758Z,82.32
2022-10-05T05:10:24.558Z,82.41
2022-10-05T05:13:26.859Z,84.01
2022-10-05T05:16:10.854Z,83.07
2022-10-05T05:19:45.538Z,82.26
2022-10-05T05:22:58.027Z,82.69
2022-10-05T05:25:59.128Z,83.35
2022-10-05T05:28:58.160Z,82.62
2022-10-05T05:31:32.488Z,82.73
2022-10-05T05:34:48.092Z,82.47
2022-10-05T05:37:35.014Z,82.25
2022-10-05T05:40:22.491Z,82.07
2022-10-05T05:43:16.936Z,81.34
2022-10-05T05:45:51.215Z,81.94
2022-10-05T05:48:46.611Z,80.05
2022-10-05T05:51:22.219Z,78.72
2022-10-05T05:54:22.524Z,77.76
2022-10-05T05:57:43.514Z,76.67
2022-10-05T06:00:37.906Z,73.56
2022-10-05T06:03:19.344Z,73.06
2022-10-05T06:05:57.073Z,72.22
2022-10-05T06:08:27.012Z,72.86
2022-10-05T06:11:04.537Z,71.37
2022-10-05T06:13:37.668Z,73.11
2022-10-05T06:16:30.351Z,73.29
2022-10-05T06:19:16.772Z,72.50
2022-10-05T06:22:18.435Z,73.02
2022-10-05T06:25:13.221Z,73.06
2022-10-05T06:28:13.739Z,73.60
2022-10-05T06:31:06.944Z,73.43
2022-10-05T06:34:03.003Z,71.74
2022-10-05T06:36:38.813Z,72.36
2022-10-05T06:39:33.335Z,73.50
2022-10-05T06:42:15.500Z,70.74
2022-10-05T06:45:26.886Z,70.72
2022-10-05T06:48:13.655Z,70.56
2022-10-05T06:50:49.070Z,69.96
2022-10-05T06:53:40.947Z,67.05
2022-10-05T06:56:31.900Z,67.87
2022-10-05T06:59:38.431Z,67.17
2022-10-05T07:02:23.997Z,68.96
2022-10-05T07:05:39.127Z,68.81
2022-10-05T07:08:18.305Z,68.86
2022-10-05T07:10:48.093Z,69.59
2022-10-05T07:13:52.942Z,69.39
2022-10-05T07:17:17.547Z,68.72
2022-10-05T07:20:22.687Z,69.26
2022-10-05T07:23:02.924Z,69.29
2022-10-05T07:25:53.260Z,68.76
2022-10-05T07:28:31.833Z,69.53
2022-10-05T07:31:26.183Z,68.60
2022-10-05T07:34:07.248Z,68.57
2022-10-05T07:37:28.375Z,68.16
2022-10-05T07:40:10.813Z,67.30
2022-10-05T07:43:00.101Z,67.14
2022-10-05T07:45:52.562Z,63.90
2022-10-05T07:48:23.235Z,64.30
2022-10-05T07:51:16.077Z,63.27
2022-10-05T07:54:05.548Z,63.11
2022-10-05T07:56:46.577Z,61.15
2022-10-05T07:59:32.208Z,63.52
2022-10-05T08:02:36.483Z,64.20
2022-10-05T08:05:13.469Z,64.98
2022-10-05T08:07:41.025Z,65.76
2022-10-05T08:10:46.168Z,64.12
2022-10-05T08:13:40.008Z,64.14
2022-10-05T08:16:17.793Z,63.58
2022-10-05T08:18:57.541Z,63.90
2022-10-05T08:21:40.358Z,64.44
2022-10-05T08:24:55.993Z,62.61
2022-10-05T08:27:43.507Z,61.60
2022-10-05T08:30:16.347Z,62.17
2022-10-05T08:33:02.857Z,62.93
2022-10-05T08:35:44.119Z,61.22
2022-10-05T08:38:19.651Z,60.83
2022-10-05T08:41:25.402Z,60.23
2022-10-05T08:44:23.370Z,59.36
2022-10-05T08:46:53.595Z,59.30
2022-10-05T08:50:10.298Z,58.10
2022-10-05T08:53:25.128Z,59.67
2022-10-05T08:56:02.769Z,61.08
2022-10-05T08:59:11.769Z,60.60
2022-10-05T09:02:20.713Z,62.87
2022-10-05T09:04:47.780Z,62.59
2022-10-05T09:07:38.322Z,63.83
2022-10-05T09:10:42.105Z,63.01
2022-10-05T09:14:00.207Z,62.99
2022-10-05T09:16:48.561Z,62.75
2022-10-05T09:19:39.232Z,63.84
2022-10-05T09:22:38.527Z,63.31
2022-10-05T09:25:45.181Z,63.11
2022-10-05T09:28:56.305Z,64.32
2022-10-05T09:32:29.907Z,62.51
2022-10-05T09:35:36.884Z,62.23
2022-10-05T09:38:36.602Z,61.10
2022-10-05T09:41:25.630Z,59.87
2022-10-05T09:44:13.577Z,58.24
2022-10-05T09:46:54.502Z,57.28
2022-10-05T09:50:08.170Z,54.65
2022-10-05T09:52:49.621Z,54.34
2022-10-05T09:55:55.155Z,52.48
2022-10-05T09:59:06.632Z,52.62
2022-10-05T10:02:09.983Z,52.74
2022-10-05T10:05:05.789Z,52.27
2022-10-05T10:07:46.814Z,52.71
2022-10-05T10:10:35.934Z,51.78
2022-10-05T10:13:52.237Z,52.45
2022-10-05T10:16:44.863Z,53.16
2022-10-05T10:19:51.517Z,52.75
2022-10-05T10:23:00.142Z,54.06
2022-10-05T10:26:04.561Z,54.91
2022-10-05T10:28:54.035Z,53.13
2022-10-05T10:31:41.626Z,54.01
2022-10-05T10:34:45.883Z,54.86
2022-10-05T10:37:27.912Z,55.98
2022-10-05T10:40:38.144Z,55.18
2022-10-05T10:43:49.805Z,55.57
2022-10-05T10:46:45.137Z,56.38
2022-10-05T10:49:37.129Z,56.94
2022-10-05T10:55:34.017Z,57.14
2022-10-05T10:59:16.970Z,55.34
2022-10-05T11:02:15.108Z,54.54
2022-10-05T11:05:09.688Z,53.52
2022-10-05T11:08:16.380Z,53.96
2022-10-05T11:11:20.599Z,55.15
2022-10-05T11:14:52.516Z,55.19
2022-10-05T11:17:35.346Z,54.52
2022-10-05T11:20:35.953Z,54.76
2022-10-05T11:23:21.221Z,55.00
2022-10-05T11:26:15.773Z,54.58
2022-10-05T11:29:43.560Z,54.18
2022-10-05T11:32:25.816Z,54.31
2022-10-05T11:35:31.166Z,54.15
2022-10-05T11:38:20.075Z,53.52
2022-10-05T11:41:17.857Z,53.85
2022-10-05T11:44:07.991Z,53.66
2022-10-05T11:47:00.412Z,54.06
2022-10-05T11:49:48.967Z,54.31
2022-10-05T11:52:28.809Z,53.76
2022-10-05T11:55:49.005Z,53.84
2022-10-05T11:58:26.641Z,54.29
2022-10-05T12:01:13.209Z,53.37
2022-10-05T12:04:11.615Z,53.44
2022-10-05T12:07:01.518Z,53.90
2022-10-05T12:10:14.975Z,53.64
2022-10-05T12:13:30.424Z,53.40
2022-10-05T12:16:36.371Z,54.16
2022-10-05T12:19:03.444Z,54.17
2022-10-05T12:21:56.838Z,53.50
2022-10-05T12:25:31.841Z,54.24
2022-10-05T12:28:08.625Z,54.45
2022-10-05T12:31:17.831Z,54.49
2022-10-05T12:34:00.222Z,54.39
2022-10-05T12:36:59.647Z,54.07
2022-10-05T12:39:57.177Z,54.05
2022-10-05T12:42:59.548Z,54.27
2022-10-05T12:45:56.977Z,56.24
2022-10-05T12:49:08.865Z,56.16
2022-10-05T12:51:45.676Z,56.08
2022-10-05T12:54:51.020Z,55.43
2022-10-05T12:57:54.858Z,54.97
2022-10-05T13:00:23.430Z,55.93
2022-10-05T13:03:37.183Z,55.41
2022-10-05T13:06:43.960Z,56.69
2022-10-05T13:09:16.522Z,55.45
2022-10-05T13:11:51.997Z,55.26
2022-10-05T13:14:40.205Z,54.31
2022-10-05T13:17:24.053Z,55.44
2022-10-05T13:20:30.478Z,56.20
2022-10-05T13:23:42.415Z,56.51
2022-10-05T13:26:19.586Z,57.23
2022-10-05T13:28:49.470Z,56.92
2022-10-05T13:31:33.099Z,57.30
2022-10-05T13:34:24.733Z,56.82
2022-10-05T13:37:31.831Z,55.91
2022-10-05T13:40:12.840Z,56.01
2022-10-05T13:43:09.648Z,56.30
2022-10-05T13:46:01.936Z,56.68
2022-10-05T13:48:54.723Z,57.77
2022-10-05T13:51:46.196Z,56.53
2022-10-05T13:54:28.758Z,57.07
2022-10-05T13:57:14.354Z,57.04
2022-10-05T14:00:05.114Z,56.53
2022-10-05T14:02:40.350Z,56.10
2022-10-05T14:05:27.218Z,56.25
2022-10-05T14:08:19.305Z,56.42
2022-10-05T14:10:48.232Z,55.76
2022-10-05T14:14:24.308Z,57.65
2022-10-05T14:16:53.049Z,56.87
2022-10-05T14:19:48.772Z,58.03
2022-10-05T14:22:25.088Z,58.83
2022-10-05T14:25:02.259Z,57.35
2022-10-05T14:27:37.046Z,58.33
2022-10-05T14:30:13.196Z,57.75
2022-10-05T14:33:03.557Z,57.95
2022-10-05T14:35:50.482Z,59.78
2022-10-05T14:38:52.362Z,58.99
2022-10-05T14:41:27.699Z,58.73
2022-10-05T14:44:11.283Z,58.73
2022-10-05T14:46:39.905Z,58.97
2022-10-05T14:49:15.827Z,59.17
2022-10-05T14:51:43.317Z,58.24
2022-10-05T14:54:41.381Z,58.18
2022-10-05T14:57:25.365Z,57.56
2022-10-05T15:00:16.730Z,59.47
2022-10-05T15:02:55.705Z,58.86
2022-10-05T15:05:44.797Z,59.28
2022-10-05T15:08:31.473Z,59.65
2022-10-05T15:11:27.072Z,59.77
2022-10-05T15:13:56.594Z,59.63
2022-10-05T15:16:34.371Z,59.98
2022-10-05T15:19:31.757Z,60.34
2022-10-05T15:22:31.862Z,59.93
2022-10-05T15:25:23.378Z,60.43
2022-10-05T15:28:24.310Z,60.08
2022-10-05T15:31:18.948Z,60.28
2022-10-05T15:34:21.263Z,59.73
2022-10-05T15:37:20.037Z,60.49
2022-10-05T15:40:00.097Z,61.19
2022-10-05T15:42:41.638Z,60.46
2022-10-05T15:45:20.838Z,59.99
2022-10-05T15:48:00.145Z,61.05
2022-10-05T15:51:07.292Z,60.65
2022-10-05T15:54:14.131Z,60.87
2022-10-05T15:56:53.862Z,60.90
2022-10-05T16:00:02.151Z,60.79
2022-10-05T16:03:13.327Z,61.12
2022-10-05T16:06:18.838Z,61.55
2022-10-05T16:09:24.854Z,61.53
2022-10-05T16:12:02.428Z,61.41
2022-10-05T16:14:41.778Z,60.96
2022-10-05T16:17:36.411Z,62.17
2022-10-05T16:20:06.752Z,61.20
2022-10-05T16:22:43.711Z,61.78
2022-10-05T16:25:26.049Z,61.36
2022-10-05T16:28:29.336Z,61.34
2022-10-05T16:31:06.845Z,62.21
2022-10-05T16:33:59.928Z,61.79
2022-10-05T16:36:58.602Z,61.70
2022-10-05T16:39:50.330Z,61.73
2022-10-05T16:42:50.519Z,61.92
2022-10-05T16:45:48.590Z,63.25
2022-10-05T16:48:27.643Z,63.37
2022-10-05T16:51:12.701Z,63.33
2022-10-05T16:54:03.085Z,64.55
2022-10-05T16:56:45.266Z,64.42
2022-10-05T16:59:33.766Z,65.33
2022-10-05T17:02:15.444Z,65.18
2022-10-05T17:05:27.318Z,66.41
2022-10-05T17:08:45.825Z,66.42
2022-10-05T17:11:34.059Z,67.02
2022-10-05T17:14:42.951Z,67.55
2022-10-05T17:18:23.788Z,68.53
2022-10-05T17:20:56.140Z,68.06
2022-10-05T17:23:47.352Z,68.25
2022-10-05T17:26:23.698Z,68.67
2022-10-05T17:29:15.934Z,69.58
2022-10-05T17:32:33.808Z,71.01
2022-10-05T17:35:04.233Z,69.59
2022-10-05T17:37:35.891Z,69.76
2022-10-05T17:40:30.553Z,71.36
2022-10-05T17:43:17.387Z,71.69
2022-10-05T17:45:44.650Z,71.20
2022-10-05T17:48:33.552Z,73.11
2022-10-05T17:51:19.838Z,72.13
2022-10-05T17:54:07.758Z,72.45
2022-10-05T17:56:46.840Z,73.41
2022-10-05T17:59:44.714Z,74.88
2022-10-05T18:02:37.205Z,74.96
2022-10-05T18:05:09.015Z,74.66
2022-10-05T18:07:38.715Z,75.23
2022-10-05T18:10:11.982Z,75.03
2022-10-05T18:12:59.145Z,74.65
2022-10-05T18:15:26.274Z,75.87
2022-10-05T18:18:19.504Z,74.67
2022-10-05T18:21:24.191Z,75.23
2022-10-05T18:23:59.980Z,75.59
2022-10-05T18:27:00.511Z,74.62
2022-10-05T18:30:08.917Z,74.37
2022-10-05T18:33:30.472Z,73.80
2022-10-05T18:36:27.343Z,73.95
2022-10-05T18:39:24.248Z,74.24
2022-10-05T18:42:11.817Z,74.37
2022-10-05T18:45:20.648Z,73.74
2022-10-05T18:48:25.977Z,73.99
2022-10-05T18:51:26.287Z,73.65
2022-10-05T18:54:33.062Z,74.54
2022-10-05T18:57:21.509Z,72.95
2022-10-05T18:59:58.756Z,73.67
2022-10-05T19:02:31.259Z,72.36
2022-10-05T19:05:48.329Z,75.21
2022-10-05T19:08:51.226Z,75.46
2022-10-05T19:11:47.053Z,75.70
2022-10-05T19:14:52.529Z,76.11
2022-10-05T19:18:01.872Z,76.50
2022-10-05T19:20:49.092Z,76.20
2022-10-05T19:23:41.232Z,75.84
2022-10-05T19:26:31.031Z,77.09
2022-10-05T19:29:36.237Z,75.47
2022-10-05T19:33:01.980Z,74.77
2022-10-05T19:35:58.918Z,75.24
2022-10-05T19:38:55.109Z,75.62
2022-10-05T19:41:31.373Z,75.08
2022-10-05T19:44:40.664Z,74.43
2022-10-05T19:47:34.456Z,74.08
2022-10-05T19:50:48.839Z,74.53
2022-10-05T19:53:36.676Z,75.37
2022-10-05T19:56:31.274Z,74.98
2022-10-05T19:59:13.935Z,74.57
2022-10-05T20:01:53.008Z,75.86
2022-10-05T20:04:42.825Z,75.52
2022-10-05T20:07:17.313Z,77.34
2022-10-05T20:10:00.330Z,77.02
2022-10-05T20:12:56.384Z,76.52
2022-10-05T20:15:46.729Z,77.56
2022-10-05T20:19:08.407Z,78.31
2022-10-05T20:21:53.020Z,79.36
2022-10-05T20:24:48.616Z,79.00
2022-10-05T20:27:46.644Z,79.00
2022-10-05T20:30:27.550Z,79.34
2022-10-05T20:33:01.966Z,79.02
2022-10-05T20:35:30.948Z,78.89
2022-10-05T20:38:01.765Z,80.07
2022-10-05T20:40:30.666Z,79.11
2022-10-05T20:42:59.139Z,78.62
2022-10-05T20:45:26.959Z,77.54
2022-10-05T20:47:55.300Z,77.04
2022-10-05T20:50:23.105Z,77.12
2022-10-05T20:52:51.188Z,76.85
2022-10-05T20:55:21.530Z,76.19
2022-10-05T20:57:49.341Z,75.32
2022-10-05T21:00:17.034Z,76.02
2022-10-05T21:02:44.520Z,75.47
2022-10-05T21:05:12.354Z,75.66
2022-10-05T21:07:41.219Z,75.59
2022-10-05T21:10:10.762Z,74.88
2022-10-05T21:12:39.083Z,74.86
2022-10-05T21:15:07.772Z,75.28
2022-10-05T21:17:37.399Z,74.88
2022-10-05T21:20:05.670Z,75.19
2022-10-05T21:22:33.529Z,73.98
2022-10-05T21:25:01.026Z,73.97
2022-10-05T21:27:28.550Z,74.26
2022-10-05T21:29:59.190Z,74.44
2022-10-05T21:32:26.969Z,74.85
2022-10-05T21:34:55.022Z,74.42
2022-10-05T21:37:22.494Z,74.17
2022-10-05T21:39:49.906Z,74.33
2022-10-05T21:42:17.452Z,74.27
2022-10-05T21:44:45.168Z,74.62
2022-10-05T21:47:12.941Z,74.97
2022-10-05T21:49:41.532Z,74.61
2022-10-05T21:52:09.259Z,74.56
2022-10-05T21:54:37.075Z,74.62
2022-10-05T21:57:04.941Z,73.85
2022-10-05T21:59:34.804Z,74.11
2022-10-05T22:02:02.735Z,74.21
2022-10-05T22:04:30.463Z,75.20
2022-10-05T22:06:58.168Z,74.92
2022-10-05T22:09:25.977Z,74.82
2022-10-05T22:11:53.735Z,74.74
2022-10-05T22:14:21.263Z,74.55
2022-10-05T22:16:49.215Z,75.03
2022-10-05T22:19:20.128Z,74.34
2022-10-05T22:21:47.554Z,73.96
2022-10-05T22:24:17.356Z,73.89
2022-10-05T22:26:48.872Z,74.32
2022-10-05T22:29:17.920Z,74.15
2022-10-05T22:31:49.182Z,73.85
2022-10-05T22:34:18.151Z,74.19
2022-10-05T22:36:46.795Z,75.14
2022-10-05T22:39:15.897Z,75.01
2022-10-05T22:41:43.848Z,74.87
2022-10-05T22:44:11.326Z,75.50
2022-10-05T22:46:39.802Z,75.38
2022-10-05T22:49:07.295Z,74.76
2022-10-05T22:51:34.863Z,75.50
2022-10-05T22:54:02.329Z,75.11
2022-10-05T22:56:31.880Z,75.12
2022-10-05T22:58:59.656Z,75.08
2022-10-05T23:01:27.356Z,75.48
2022-10-05T23:03:57.422Z,75.96
2022-10-05T23:06:27.157Z,76.17
2022-10-05T23:08:57.947Z,75.95
2022-10-05T23:11:30.501Z,76.74
2022-10-05T23:14:00.029Z,76.15
2022-10-05T23:16:29.101Z,76.06
2022-10-05T23:18:57.185Z,76.46
2022-10-05T23:21:27.723Z,76.43
2022-10-05T23:23:55.872Z,75.89
2022-10-05T23:26:26.010Z,77.29
2022-10-05T23:28:53.569Z,77.43
2022-10-05T23:31:29.024Z,77.11
2022-10-05T23:33:57.147Z,77.10
2022-10-05T23:36:28.420Z,77.68
2022-10-05T23:38:55.940Z,78.02
2022-10-05T23:41:23.714Z,77.49
2022-10-05T23:43:51.309Z,78.19
2022-10-05T23:46:19.040Z,76.98
2022-10-05T23:48:46.662Z,77.52
2022-10-05T23:51:15.708Z,77.03
2022-10-05T23:53:43.744Z,76.91
2022-10-05T23:56:11.880Z,76.85
2022-10-05T23:58:39.962Z,77.22
